createdAt,value
2017-04-15T22:02:53.703Z,65.64
2017-04-15T22:03:53.788Z,57.30
2017-04-15T22:04:53.825Z,54.87
2017-04-15T22:05:53.911Z,54.78
2017-04-15T22:06:54.559Z,62.65
2017-04-15T22:08:39.160Z,57.83
2017-04-15T22:09:39.360Z,61.15
2017-04-15T22:10:39.575Z,48.53
2017-04-15T22:11:39.665Z,57.63
2017-04-15T22:12:39.870Z,59.33
2017-04-15T22:13:45.396Z,55.48
2017-04-15T22:14:50.787Z,63.07
2017-04-15T22:15:56.186Z,56.57
2017-04-15T22:17:00.357Z,62.12
2017-04-15T22:18:05.678Z,59.68
2017-04-15T22:19:06.641Z,55.20
2017-04-15T22:20:06.810Z,71.50
2017-04-15T22:21:07.046Z,56.85
2017-04-15T22:22:07.195Z,62.80
2017-04-15T22:23:11.412Z,57.62
2017-04-15T22:24:12.267Z,56.72
2017-04-15T22:25:12.537Z,61.53
2017-04-15T22:26:13.098Z,59.02
2017-04-15T22:27:13.193Z,59.02
2017-04-15T22:28:13.348Z,67.62
2017-04-15T22:29:13.410Z,53.22
2017-04-15T22:30:13.631Z,59.37
2017-04-15T22:31:13.839Z,61.77
2017-04-15T22:32:13.971Z,54.05
2017-04-15T22:33:14.173Z,60.85
2017-04-15T22:34:14.197Z,57.87
2017-04-15T22:35:14.257Z,57.57
2017-04-15T22:36:14.367Z,57.75
2017-04-15T22:37:14.485Z,51.60
2017-04-15T22:38:14.718Z,55.93
2017-04-15T22:39:15.735Z,50.98
2017-04-15T22:40:15.774Z,56.80
2017-04-15T22:41:15.949Z,60.12
2017-04-15T22:42:16.068Z,46.05
2017-04-15T22:43:16.877Z,51.30
2017-04-15T22:44:16.923Z,58.85
2017-04-15T22:45:17.297Z,49.80
2017-04-15T22:46:17.573Z,52.97
2017-04-15T22:47:17.678Z,49.67
2017-04-15T22:48:17.791Z,61.65
2017-04-15T22:49:18.075Z,59.25
2017-04-15T22:50:18.472Z,49.08
2017-04-15T22:51:18.723Z,50.05
2017-04-15T22:52:18.857Z,60.60
2017-04-15T22:53:18.947Z,51.30
2017-04-15T22:54:19.076Z,59.90
2017-04-15T22:55:19.136Z,55.03
2017-04-15T22:56:19.308Z,60.40
2017-04-15T22:57:19.711Z,62.42
2017-04-15T22:58:19.870Z,57.17
2017-04-15T22:59:20.613Z,61.18
2017-04-15T23:00:20.782Z,64.25
2017-04-15T23:01:20.912Z,63.48
2017-04-15T23:02:21.721Z,60.88
2017-04-15T23:03:21.710Z,74.10
2017-04-15T23:04:21.814Z,59.18
2017-04-15T23:05:21.845Z,71.58
2017-04-15T23:06:22.098Z,67.48
2017-04-15T23:07:22.105Z,65.95
2017-04-15T23:08:22.167Z,59.92
2017-04-15T23:09:22.195Z,69.20
2017-04-15T23:10:22.271Z,70.68
2017-04-15T23:11:22.382Z,57.18
2017-04-15T23:12:22.952Z,67.95
2017-04-15T23:13:23.056Z,66.48
2017-04-15T23:14:23.205Z,61.50
2017-04-15T23:15:28.626Z,64.52
2017-04-15T23:16:34.030Z,60.10
2017-04-15T23:17:34.484Z,67.70
2017-04-15T23:18:35.380Z,60.67
2017-04-15T23:19:36.493Z,63.23
2017-04-15T23:20:36.568Z,65.20
2017-04-15T23:21:36.696Z,67.40
2017-04-15T23:22:36.755Z,58.27
2017-04-15T23:23:37.110Z,57.85
2017-04-15T23:24:38.197Z,60.28
2017-04-15T23:25:41.569Z,60.47
2017-04-15T23:26:41.596Z,61.55
2017-04-15T23:27:42.387Z,70.28
2017-04-15T23:28:42.502Z,61.63
2017-04-15T23:29:42.553Z,73.20
2017-04-15T23:30:42.650Z,66.82
2017-04-15T23:31:42.790Z,68.42
2017-04-15T23:32:42.819Z,65.77
2017-04-15T23:33:42.945Z,64.73
2017-04-15T23:34:42.964Z,57.45
2017-04-15T23:35:43.025Z,62.48
2017-04-15T23:36:43.148Z,77.17
2017-04-15T23:37:43.966Z,65.68
2017-04-15T23:38:44.159Z,65.05
2017-04-15T23:39:44.187Z,70.32
2017-04-15T23:40:45.047Z,68.28
2017-04-15T23:41:45.081Z,58.63
2017-04-15T23:42:45.126Z,55.85
2017-04-15T23:43:46.178Z,50.05
2017-04-15T23:44:46.329Z,45.40
2017-04-15T23:45:47.115Z,54.48
2017-04-15T23:46:47.155Z,38.52
2017-04-15T23:47:47.263Z,41.48
2017-04-15T23:48:47.586Z,43.88
2017-04-15T23:49:47.634Z,33.93
2017-04-15T23:50:48.413Z,40.48
2017-04-15T23:51:48.608Z,45.87
2017-04-15T23:52:48.713Z,46.70
2017-04-15T23:53:48.745Z,41.53
2017-04-15T23:54:48.767Z,40.58
2017-04-15T23:55:48.914Z,44.10
2017-04-15T23:56:48.945Z,55.33
2017-04-15T23:57:49.079Z,52.33
2017-04-15T23:58:49.089Z,51.42
2017-04-15T23:59:49.098Z,52.33
